createdAt,value
2022-09-24T00:01:27.896Z,6.60
2022-09-24T00:03:57.110Z,6.90
2022-09-24T00:06:24.537Z,6.95
2022-09-24T00:08:56.738Z,6.80
2022-09-24T00:11:26.425Z,6.70
2022-09-24T00:13:53.746Z,8.05
2022-09-24T00:16:22.692Z,7.40
2022-09-24T00:18:49.851Z,7.00
2022-09-24T00:21:20.341Z,7.35
2022-09-24T00:23:56.161Z,6.97
2022-09-24T00:26:41.859Z,7.80
2022-09-24T00:29:11.254Z,8.10
2022-09-24T00:31:38.255Z,7.57
2022-09-24T00:34:05.798Z,7.60
2022-09-24T00:36:32.816Z,7.93
2022-09-24T00:39:00.452Z,8.38
2022-09-24T00:41:31.350Z,7.90
2022-09-24T00:43:59.207Z,8.55
2022-09-24T00:46:39.923Z,8.70
2022-09-24T00:49:14.660Z,9.40
2022-09-24T00:51:44.006Z,9.52
2022-09-24T00:54:23.090Z,9.68
2022-09-24T00:56:52.266Z,9.75
2022-09-24T00:59:23.196Z,9.90
2022-09-24T01:01:51.819Z,9.70
2022-09-24T01:04:22.852Z,9.90
2022-09-24T01:06:50.701Z,9.95
2022-09-24T01:09:20.180Z,9.40
2022-09-24T01:11:47.413Z,10.27
2022-09-24T01:14:17.122Z,10.20
2022-09-24T01:16:53.126Z,9.27
2022-09-24T01:19:31.957Z,10.70
2022-09-24T01:22:04.042Z,10.52
2022-09-24T01:24:58.406Z,10.55
2022-09-24T01:28:00.281Z,11.02
2022-09-24T01:30:32.311Z,10.68
2022-09-24T01:33:03.394Z,11.52
2022-09-24T01:35:42.249Z,10.88
2022-09-24T01:38:14.821Z,11.13
2022-09-24T01:40:43.748Z,11.00
2022-09-24T01:43:13.115Z,10.52
2022-09-24T01:45:41.225Z,12.13
2022-09-24T01:48:08.505Z,11.18
2022-09-24T01:50:49.964Z,11.85
2022-09-24T01:53:27.132Z,11.77
2022-09-24T01:56:05.323Z,11.75
2022-09-24T01:59:03.293Z,11.00
2022-09-24T02:01:43.487Z,11.45
2022-09-24T02:04:15.692Z,11.60
2022-09-24T02:06:50.396Z,11.75
2022-09-24T02:09:35.121Z,12.32
2022-09-24T02:12:14.518Z,11.88
2022-09-24T02:14:51.449Z,12.55
2022-09-24T02:17:19.046Z,12.23
2022-09-24T02:19:49.052Z,13.07
2022-09-24T02:22:17.600Z,12.90
2022-09-24T02:24:51.013Z,12.90
2022-09-24T02:27:18.617Z,13.00
2022-09-24T02:29:46.310Z,12.82
2022-09-24T02:32:18.855Z,13.85
2022-09-24T02:34:52.111Z,13.57
2022-09-24T02:37:20.485Z,13.77
2022-09-24T02:39:48.302Z,14.48
2022-09-24T02:42:16.497Z,14.38
2022-09-24T02:44:43.746Z,13.90
2022-09-24T02:47:10.984Z,14.05
2022-09-24T02:49:37.865Z,15.45
2022-09-24T02:52:04.929Z,14.60
2022-09-24T02:54:32.024Z,14.93
2022-09-24T02:56:59.307Z,15.32
2022-09-24T02:59:26.230Z,15.70
2022-09-24T03:01:53.262Z,14.98
2022-09-24T03:04:20.282Z,15.88
2022-09-24T03:06:47.302Z,15.38
2022-09-24T03:09:14.261Z,14.70
2022-09-24T03:11:41.539Z,15.65
2022-09-24T03:14:08.988Z,16.65
2022-09-24T03:16:36.018Z,15.25
2022-09-24T03:19:03.457Z,16.83
2022-09-24T03:21:30.648Z,15.10
2022-09-24T03:23:57.683Z,15.13
2022-09-24T03:26:24.937Z,15.30
2022-09-24T03:28:52.024Z,15.30
2022-09-24T03:31:18.899Z,16.58
2022-09-24T03:33:49.081Z,22.13
2022-09-24T03:36:21.699Z,15.52
2022-09-24T03:38:50.833Z,16.58
2022-09-24T03:41:18.354Z,15.27
2022-09-24T03:43:45.373Z,14.85
2022-09-24T03:46:12.887Z,14.98
2022-09-24T03:48:41.405Z,15.60
2022-09-24T03:51:16.559Z,15.82
2022-09-24T03:53:43.395Z,15.15
2022-09-24T03:56:11.976Z,13.95
2022-09-24T03:58:39.951Z,14.88
2022-09-24T04:01:08.467Z,14.30
2022-09-24T04:03:36.383Z,15.45
2022-09-24T04:06:04.319Z,14.88
2022-09-24T04:08:31.751Z,15.88
2022-09-24T04:10:59.154Z,15.07
2022-09-24T04:13:26.195Z,15.88
2022-09-24T04:15:53.808Z,15.18
2022-09-24T04:18:20.841Z,14.45
2022-09-24T04:20:48.173Z,14.07
2022-09-24T04:23:15.534Z,14.68
2022-09-24T04:25:43.001Z,14.73
2022-09-24T04:28:10.974Z,15.23
2022-09-24T04:30:38.772Z,14.75
2022-09-24T04:33:06.886Z,16.10
2022-09-24T04:35:38.633Z,14.50
2022-09-24T04:38:06.503Z,14.00
2022-09-24T04:40:33.916Z,14.32
2022-09-24T04:43:01.152Z,14.70
2022-09-24T04:45:28.004Z,14.75
2022-09-24T04:47:57.982Z,15.40
2022-09-24T04:50:28.859Z,14.65
2022-09-24T04:52:55.859Z,15.48
2022-09-24T04:55:24.120Z,14.27
2022-09-24T04:57:51.301Z,14.60
2022-09-24T05:00:20.697Z,14.88
2022-09-24T05:02:48.021Z,15.30
2022-09-24T05:05:15.122Z,15.32
2022-09-24T05:07:42.757Z,15.32
2022-09-24T05:10:09.801Z,14.82
2022-09-24T05:12:37.086Z,15.90
2022-09-24T05:15:04.759Z,14.30
2022-09-24T05:17:31.764Z,13.65
2022-09-24T05:19:59.687Z,15.10
2022-09-24T05:22:30.186Z,14.43
2022-09-24T05:24:57.184Z,14.35
2022-09-24T05:27:24.341Z,15.23
2022-09-24T05:29:51.157Z,15.88
2022-09-24T05:32:20.205Z,16.17
2022-09-24T05:34:47.855Z,14.60
2022-09-24T05:37:15.498Z,15.07
2022-09-24T05:39:42.882Z,14.30
2022-09-24T05:42:13.957Z,14.95
2022-09-24T05:44:42.906Z,14.88
2022-09-24T05:47:10.296Z,13.85
2022-09-24T05:49:37.765Z,14.60
2022-09-24T05:52:04.826Z,15.02
2022-09-24T05:54:32.045Z,14.43
2022-09-24T05:56:58.947Z,14.38
2022-09-24T05:59:25.876Z,14.07
2022-09-24T06:01:52.791Z,15.13
2022-09-24T06:04:19.798Z,13.77
2022-09-24T06:06:46.657Z,14.13
2022-09-24T06:09:13.697Z,14.10
2022-09-24T06:11:41.267Z,14.32
2022-09-24T06:14:09.089Z,14.65
2022-09-24T06:16:36.229Z,14.73
2022-09-24T06:19:03.298Z,14.77
2022-09-24T06:21:30.517Z,14.60
2022-09-24T06:23:57.781Z,13.95
2022-09-24T06:26:26.550Z,15.55
2022-09-24T06:28:53.418Z,14.98
2022-09-24T06:31:20.852Z,15.48
2022-09-24T06:33:47.807Z,14.70
2022-09-24T06:36:14.795Z,14.27
2022-09-24T06:38:41.925Z,14.90
2022-09-24T06:41:09.985Z,13.73
2022-09-24T06:43:36.914Z,13.63
2022-09-24T06:46:05.058Z,13.25
2022-09-24T06:48:32.879Z,14.00
2022-09-24T06:50:59.979Z,13.10
2022-09-24T06:53:27.308Z,14.23
2022-09-24T06:55:58.851Z,13.52
2022-09-24T06:58:26.129Z,13.65
2022-09-24T07:00:55.457Z,13.80
2022-09-24T07:03:22.799Z,14.02
2022-09-24T07:05:49.725Z,14.52
2022-09-24T07:08:17.459Z,13.55
2022-09-24T07:10:45.822Z,13.32
2022-09-24T07:13:14.244Z,16.27
2022-09-24T07:15:42.952Z,13.38
2022-09-24T07:18:10.431Z,13.35
2022-09-24T07:20:37.293Z,13.10
2022-09-24T07:23:05.453Z,13.55
2022-09-24T07:25:33.099Z,13.65
2022-09-24T07:28:09.299Z,11.93
2022-09-24T07:30:36.767Z,13.32
2022-09-24T07:33:04.726Z,13.35
2022-09-24T07:35:31.969Z,12.02
2022-09-24T07:38:17.891Z,11.90
2022-09-24T07:40:45.059Z,13.02
2022-09-24T07:43:14.142Z,12.02
2022-09-24T07:45:42.631Z,12.05
2022-09-24T07:48:10.546Z,12.00
2022-09-24T07:50:42.708Z,11.80
2022-09-24T07:53:13.395Z,12.53
2022-09-24T07:55:41.444Z,11.98
2022-09-24T07:58:11.934Z,11.93
2022-09-24T08:00:38.959Z,11.82
2022-09-24T08:03:05.819Z,10.77
2022-09-24T08:05:33.301Z,11.18
2022-09-24T08:08:00.473Z,10.13
2022-09-24T08:10:28.429Z,10.20
2022-09-24T08:12:57.288Z,10.25
2022-09-24T08:15:24.308Z,9.73
2022-09-24T08:17:51.442Z,10.10
2022-09-24T08:20:18.786Z,9.07
2022-09-24T08:22:45.681Z,9.07
2022-09-24T08:25:12.633Z,8.98
2022-09-24T08:27:39.777Z,9.68
2022-09-24T08:30:07.692Z,9.77
2022-09-24T08:32:34.825Z,8.80
2022-09-24T08:35:01.735Z,7.10
2022-09-24T08:37:29.114Z,10.85
2022-09-24T08:39:56.005Z,6.60
2022-09-24T08:42:42.220Z,7.53
2022-09-24T08:45:28.831Z,6.57
2022-09-24T08:48:01.603Z,4.50
2022-09-24T08:50:31.646Z,4.50
2022-09-24T08:53:07.735Z,5.82
2022-09-24T08:55:40.036Z,5.13
2022-09-24T08:58:28.716Z,5.40
2022-09-24T09:01:01.497Z,5.22
2022-09-24T09:03:37.734Z,5.20
2022-09-24T09:06:10.762Z,6.18
2022-09-24T09:11:46.444Z,3.83
2022-09-24T09:14:30.525Z,4.10
2022-09-24T09:17:21.724Z,4.65
2022-09-24T09:19:55.554Z,3.72
2022-09-24T09:22:27.900Z,3.42
2022-09-24T09:25:03.992Z,3.40
2022-09-24T09:27:31.538Z,3.13
2022-09-24T09:30:03.142Z,3.60
2022-09-24T09:32:30.531Z,3.65
2022-09-24T09:35:15.916Z,3.42
2022-09-24T09:38:08.550Z,3.60
2022-09-24T09:40:53.922Z,3.30
2022-09-24T09:43:20.955Z,3.90
2022-09-24T09:46:14.688Z,9.57
2022-09-24T09:48:47.495Z,4.10
2022-09-24T09:51:23.043Z,4.03
2022-09-24T09:54:01.864Z,4.88
2022-09-24T09:56:36.564Z,3.15
2022-09-24T09:59:29.799Z,3.22
2022-09-24T10:04:37.200Z,3.30
2022-09-24T10:07:17.631Z,3.15
2022-09-24T10:09:45.956Z,3.33
2022-09-24T10:12:22.340Z,2.95
2022-09-24T10:15:03.922Z,3.45
2022-09-24T10:17:36.946Z,3.25
2022-09-24T10:22:37.222Z,3.40
2022-09-24T10:25:04.704Z,3.47
2022-09-24T10:27:33.882Z,3.42
2022-09-24T10:30:30.484Z,3.22
2022-09-24T10:32:58.994Z,3.20
2022-09-24T10:35:29.609Z,2.80
2022-09-24T10:37:59.994Z,3.55
2022-09-24T10:40:38.283Z,2.80
2022-09-24T10:43:06.783Z,3.20
2022-09-24T10:46:17.609Z,3.15
2022-09-24T10:49:18.386Z,3.25
2022-09-24T10:52:09.156Z,3.50
2022-09-24T10:55:02.802Z,3.30
2022-09-24T10:57:43.633Z,3.58
2022-09-24T11:00:21.344Z,3.30
2022-09-24T11:03:16.366Z,3.20
2022-09-24T11:05:56.966Z,3.33
2022-09-24T11:08:51.190Z,3.17
2022-09-24T11:11:28.099Z,3.55
2022-09-24T11:14:12.855Z,3.58
2022-09-24T11:17:00.064Z,3.42
2022-09-24T11:19:53.744Z,2.72
2022-09-24T11:22:26.195Z,3.00
2022-09-24T11:25:24.552Z,3.17
2022-09-24T11:27:54.213Z,3.28
2022-09-24T11:30:54.604Z,3.42
2022-09-24T11:34:10.349Z,3.65
2022-09-24T11:36:53.703Z,3.33
2022-09-24T11:40:04.958Z,5.00
2022-09-24T11:42:48.271Z,3.30
2022-09-24T11:45:49.213Z,3.72
2022-09-24T11:48:45.295Z,3.63
2022-09-24T11:51:14.907Z,3.67
2022-09-24T11:53:41.710Z,4.05
2022-09-24T11:56:24.359Z,7.53
2022-09-24T11:58:58.991Z,3.55
2022-09-24T12:01:30.397Z,3.97
2022-09-24T12:04:00.088Z,3.80
2022-09-24T12:06:55.830Z,3.53
2022-09-24T12:09:34.766Z,3.22
2022-09-24T12:12:15.222Z,5.53
2022-09-24T12:15:05.241Z,5.78
2022-09-24T12:17:44.758Z,7.45
2022-09-24T12:20:20.370Z,4.32
2022-09-24T12:22:50.548Z,8.30
2022-09-24T12:25:17.823Z,5.30
2022-09-24T12:27:45.958Z,3.80
2022-09-24T12:30:56.667Z,4.68
2022-09-24T12:33:29.875Z,4.35
2022-09-24T12:36:18.142Z,5.30
2022-09-24T12:38:50.393Z,3.05
2022-09-24T12:41:23.341Z,3.83
2022-09-24T12:44:11.682Z,3.08
2022-09-24T12:46:58.431Z,3.53
2022-09-24T12:49:25.353Z,3.92
2022-09-24T12:51:54.450Z,6.38
2022-09-24T12:54:38.277Z,5.20
2022-09-24T12:57:08.205Z,4.10
2022-09-24T12:59:45.967Z,6.95
2022-09-24T13:02:19.277Z,3.70
2022-09-24T13:05:01.672Z,4.43
2022-09-24T13:08:14.557Z,4.15
2022-09-24T13:10:41.672Z,4.45
2022-09-24T13:13:29.332Z,6.68
2022-09-24T13:16:15.689Z,7.88
2022-09-24T13:18:44.170Z,5.47
2022-09-24T13:21:23.002Z,6.25
2022-09-24T13:23:50.530Z,7.57
2022-09-24T13:26:34.201Z,7.15
2022-09-24T13:29:03.822Z,3.83
2022-09-24T13:31:45.765Z,4.65
2022-09-24T13:34:33.621Z,4.10
2022-09-24T13:37:10.738Z,3.88
2022-09-24T13:39:45.145Z,3.50
2022-09-24T13:42:17.940Z,2.75
2022-09-24T13:44:51.351Z,2.33
2022-09-24T13:47:26.941Z,2.40
2022-09-24T13:50:01.783Z,2.70
2022-09-24T13:52:29.053Z,2.83
2022-09-24T13:55:00.778Z,3.15
2022-09-24T13:57:30.088Z,2.95
2022-09-24T14:00:16.287Z,3.22
2022-09-24T14:02:52.792Z,3.38
2022-09-24T14:05:20.329Z,2.88
2022-09-24T14:08:01.223Z,2.95
2022-09-24T14:10:28.264Z,6.55
2022-09-24T14:13:14.398Z,6.25
2022-09-24T14:15:54.565Z,6.30
2022-09-24T14:18:22.444Z,3.90
2022-09-24T14:21:04.236Z,4.95
2022-09-24T14:23:40.747Z,4.75
2022-09-24T14:26:10.861Z,3.33
2022-09-24T14:28:38.149Z,3.00
2022-09-24T14:31:09.040Z,2.50
2022-09-24T14:33:39.259Z,2.22
2022-09-24T14:36:06.757Z,3.13
2022-09-24T14:38:40.909Z,2.38
2022-09-24T14:41:23.887Z,2.30
2022-09-24T14:43:57.691Z,2.65
2022-09-24T14:46:27.937Z,2.90
2022-09-24T14:49:23.897Z,3.45
2022-09-24T14:52:03.041Z,2.58
2022-09-24T14:54:41.514Z,3.80
2022-09-24T14:57:31.638Z,2.67
2022-09-24T14:59:58.520Z,2.70
2022-09-24T15:02:37.192Z,3.20
2022-09-24T15:05:07.488Z,2.45
2022-09-24T15:07:35.390Z,2.95
2022-09-24T15:10:05.401Z,2.85
2022-09-24T15:12:42.746Z,2.22
2022-09-24T15:15:16.907Z,2.47
2022-09-24T15:17:47.270Z,2.25
2022-09-24T15:20:14.695Z,2.13
2022-09-24T15:22:41.566Z,2.47
2022-09-24T15:25:08.884Z,2.97
2022-09-24T15:27:39.813Z,2.65
2022-09-24T15:30:11.425Z,2.83
2022-09-24T15:32:38.813Z,2.70
2022-09-24T15:35:09.689Z,2.97
2022-09-24T15:37:40.201Z,2.78
2022-09-24T15:40:25.656Z,2.78
2022-09-24T15:42:52.771Z,3.05
2022-09-24T15:45:21.947Z,2.72
2022-09-24T15:47:50.262Z,2.80
2022-09-24T15:50:17.891Z,3.10
2022-09-24T15:52:54.502Z,2.97
2022-09-24T15:55:22.409Z,2.67
2022-09-24T15:57:49.416Z,2.70
2022-09-24T16:00:21.925Z,3.63
2022-09-24T16:02:55.515Z,3.05
2022-09-24T16:05:24.620Z,3.53
2022-09-24T16:07:51.531Z,4.07
2022-09-24T16:10:18.747Z,3.50
2022-09-24T16:12:45.968Z,3.63
2022-09-24T16:15:14.695Z,3.40
2022-09-24T16:17:42.540Z,5.00
2022-09-24T16:20:10.504Z,8.77
2022-09-24T16:22:37.433Z,7.90
2022-09-24T16:25:04.961Z,4.45
2022-09-24T16:27:33.877Z,6.05
2022-09-24T16:30:01.073Z,6.38
2022-09-24T16:32:28.077Z,14.75
2022-09-24T16:34:56.922Z,8.48
2022-09-24T16:37:24.298Z,10.43
2022-09-24T16:39:51.597Z,4.95
2022-09-24T16:42:18.661Z,13.35
2022-09-24T16:44:45.501Z,5.05
2022-09-24T16:47:16.642Z,6.82
2022-09-24T16:49:44.476Z,6.47
2022-09-24T16:52:11.318Z,5.25
2022-09-24T16:54:38.725Z,11.18
2022-09-24T16:57:06.385Z,14.23
2022-09-24T16:59:33.784Z,14.90
2022-09-24T17:02:00.823Z,4.82
2022-09-24T17:04:28.010Z,5.05
2022-09-24T17:06:55.916Z,5.32
2022-09-24T17:09:41.955Z,11.88
2022-09-24T17:12:10.991Z,8.70
2022-09-24T17:14:38.295Z,7.50
2022-09-24T17:17:05.664Z,6.25
2022-09-24T17:19:32.551Z,6.10
2022-09-24T17:21:59.578Z,7.68
2022-09-24T17:24:26.865Z,15.27
2022-09-24T17:26:54.310Z,9.35
2022-09-24T17:29:25.579Z,11.18
2022-09-24T17:31:56.688Z,7.15
2022-09-24T17:34:23.635Z,8.25
2022-09-24T17:36:50.863Z,9.52
2022-09-24T17:39:19.032Z,13.60
2022-09-24T17:41:46.047Z,13.68
2022-09-24T17:44:13.283Z,9.52
2022-09-24T17:46:40.651Z,11.05
2022-09-24T17:49:07.896Z,8.40
2022-09-24T17:51:36.502Z,9.63
2022-09-24T17:54:15.087Z,9.77
2022-09-24T17:56:42.478Z,9.20
2022-09-24T17:59:11.682Z,10.40
2022-09-24T18:01:40.514Z,13.25
2022-09-24T18:04:19.368Z,11.60
2022-09-24T18:06:47.759Z,14.27
2022-09-24T18:09:16.429Z,13.93
2022-09-24T18:11:49.461Z,13.30
2022-09-24T18:14:23.285Z,13.25
2022-09-24T18:16:50.913Z,12.70
2022-09-24T18:19:18.162Z,12.55
2022-09-24T18:21:46.413Z,13.23
2022-09-24T18:24:14.621Z,15.27
2022-09-24T18:26:41.995Z,18.50
2022-09-24T18:29:13.888Z,20.40
2022-09-24T18:31:41.420Z,23.05
2022-09-24T18:34:09.739Z,27.90
2022-09-24T18:36:38.602Z,26.63
2022-09-24T18:39:07.719Z,23.45
2022-09-24T18:41:36.219Z,22.75
2022-09-24T18:44:04.597Z,19.10
2022-09-24T18:46:33.775Z,20.15
2022-09-24T18:49:02.058Z,20.45
2022-09-24T18:51:34.438Z,20.60
2022-09-24T18:54:12.492Z,28.40
2022-09-24T18:56:39.768Z,31.27
2022-09-24T18:59:11.008Z,27.33
2022-09-24T19:01:39.538Z,23.77
2022-09-24T19:04:09.182Z,22.50
2022-09-24T19:06:37.255Z,23.02
2022-09-24T19:09:05.918Z,23.33
2022-09-24T19:11:34.198Z,24.17
2022-09-24T19:14:04.371Z,22.67
2022-09-24T19:16:31.716Z,19.95
2022-09-24T19:19:00.484Z,20.48
2022-09-24T19:21:27.644Z,21.70
2022-09-24T19:23:56.615Z,21.17
2022-09-24T19:26:32.630Z,23.05
2022-09-24T19:29:00.239Z,24.45
2022-09-24T19:31:31.433Z,24.08
2022-09-24T19:34:00.211Z,24.15
2022-09-24T19:36:27.404Z,23.77
2022-09-24T19:38:54.802Z,24.38
2022-09-24T19:41:26.758Z,24.98
2022-09-24T19:44:02.093Z,26.83
2022-09-24T19:46:32.575Z,25.58
2022-09-24T19:48:59.973Z,22.40
2022-09-24T19:51:29.286Z,23.67
2022-09-24T19:53:58.186Z,22.35
2022-09-24T19:56:25.563Z,21.92
2022-09-24T19:58:57.596Z,22.05
2022-09-24T20:01:30.374Z,22.20
2022-09-24T20:03:59.032Z,24.17
2022-09-24T20:06:29.036Z,22.25
2022-09-24T20:08:57.568Z,22.65
2022-09-24T20:11:25.604Z,20.60
2022-09-24T20:13:54.204Z,27.58
2022-09-24T20:16:26.615Z,18.90
2022-09-24T20:18:59.967Z,23.45
2022-09-24T20:21:29.378Z,18.77
2022-09-24T20:23:57.913Z,20.52
2022-09-24T20:26:44.456Z,21.42
2022-09-24T20:29:13.165Z,24.70
2022-09-24T20:31:51.309Z,27.55
2022-09-24T20:34:20.133Z,26.27
2022-09-24T20:36:47.637Z,26.15
2022-09-24T20:39:14.837Z,24.98
2022-09-24T20:41:42.800Z,20.00
2022-09-24T20:44:10.084Z,22.13
2022-09-24T20:46:37.128Z,23.05
2022-09-24T20:49:03.979Z,23.38
2022-09-24T20:51:33.737Z,26.00
2022-09-24T20:54:01.901Z,26.73
2022-09-24T20:56:30.790Z,28.48
2022-09-24T20:58:58.620Z,31.13
2022-09-24T21:01:25.959Z,31.20
2022-09-24T21:03:53.338Z,32.75
2022-09-24T21:06:22.982Z,31.27
2022-09-24T21:08:50.843Z,31.80
2022-09-24T21:11:26.626Z,31.23
2022-09-24T21:14:03.214Z,28.58
2022-09-24T21:16:33.041Z,29.80
2022-09-24T21:19:01.075Z,29.33
2022-09-24T21:21:32.054Z,30.13
2022-09-24T21:24:00.253Z,32.80
2022-09-24T21:26:32.240Z,32.97
2022-09-24T21:29:01.808Z,35.63
2022-09-24T21:31:33.415Z,34.17
2022-09-24T21:34:00.901Z,33.15
2022-09-24T21:36:31.600Z,33.75
2022-09-24T21:39:04.818Z,31.38
2022-09-24T21:44:00.226Z,33.05
2022-09-24T21:46:31.398Z,31.92
2022-09-24T21:48:59.665Z,31.20
2022-09-24T21:51:27.886Z,32.40
2022-09-24T21:54:01.120Z,32.35
2022-09-24T21:58:56.154Z,33.35
2022-09-24T22:01:33.937Z,33.25
2022-09-24T22:04:04.330Z,32.80
2022-09-24T22:06:32.806Z,35.13
2022-09-24T22:09:05.421Z,33.70
2022-09-24T22:11:34.530Z,31.80
2022-09-24T22:14:02.460Z,30.77
2022-09-24T22:16:31.333Z,40.97
2022-09-24T22:18:59.082Z,33.47
2022-09-24T22:21:26.237Z,30.63
2022-09-24T22:23:53.747Z,29.35
2022-09-24T22:26:20.867Z,25.73
2022-09-24T22:28:48.105Z,28.73
2022-09-24T22:31:17.554Z,27.00
2022-09-24T22:34:03.469Z,28.08
2022-09-24T22:36:33.276Z,24.25
2022-09-24T22:39:01.815Z,25.33
2022-09-24T22:41:30.004Z,23.85
2022-09-24T22:43:57.668Z,23.35
2022-09-24T22:46:28.586Z,21.95
2022-09-24T22:48:56.813Z,20.77
2022-09-24T22:51:27.132Z,22.33
2022-09-24T22:53:55.653Z,22.73
2022-09-24T22:56:24.770Z,22.73
2022-09-24T22:58:58.016Z,21.38
2022-09-24T23:03:57.394Z,19.10
2022-09-24T23:06:25.280Z,17.23
2022-09-24T23:08:54.660Z,16.33
2022-09-24T23:11:24.227Z,17.45
2022-09-24T23:13:54.915Z,16.98
2022-09-24T23:16:24.881Z,16.17
2022-09-24T23:18:55.068Z,15.95
2022-09-24T23:21:24.016Z,16.20
2022-09-24T23:24:02.354Z,15.07
2022-09-24T23:26:29.674Z,16.23
2022-09-24T23:28:57.655Z,13.88
2022-09-24T23:31:31.485Z,15.90
2022-09-24T23:34:00.146Z,15.35
2022-09-24T23:36:30.239Z,14.70
2022-09-24T23:38:57.791Z,14.95
2022-09-24T23:41:24.627Z,14.57
2022-09-24T23:43:51.841Z,14.52
2022-09-24T23:46:18.827Z,14.35
2022-09-24T23:48:45.725Z,14.02
2022-09-24T23:51:12.949Z,14.02
2022-09-24T23:53:41.431Z,15.93
2022-09-24T23:56:08.824Z,17.33
2022-09-24T23:58:36.330Z,15.75
